Luna, Arkansas
Current Conditions -  °F | °C
As of 3:53 PM on Saturday 20 Dec 2014 (Local Time) from KGLH Reporting Station
Clear Clear  
Wind Chill: 53°   Ceiling: Unl
Heat Index: 53°   Visibility: 9mi
Dew Point: 40°   Wind: 9mph
Humidity: 61%   Direction: 20°NNE
Pressure: 30.19"   Gusts: NA
Location:  33.3324°N, 91.3183°W
Report Text: KGLH 202153Z AUTO 02008KT 9SM CLR 12/04 A3019 RMK AO2 SLP232 T01170044
Loading
Personal Weather Stations






























Interactive Weather Map New forecast layout! Learn more

10-Day Weather Forecast

Advertisements
Track Severe Weather on mobile